createdAt,value
2018-02-07T00:01:35.414Z,16.10
2018-02-07T00:04:03.005Z,16.93
2018-02-07T00:06:31.146Z,19.10
2018-02-07T00:08:58.733Z,18.20
2018-02-07T00:11:26.984Z,20.20
2018-02-07T00:13:54.613Z,17.13
2018-02-07T00:16:22.420Z,21.43
2018-02-07T00:18:50.270Z,20.93
2018-02-07T00:21:17.821Z,18.87
2018-02-07T00:23:45.401Z,19.23
2018-02-07T00:26:13.305Z,18.03
2018-02-07T00:28:40.847Z,17.77
2018-02-07T00:31:08.421Z,21.33
2018-02-07T00:33:36.046Z,17.83
2018-02-07T00:36:03.657Z,20.83
2018-02-07T00:38:31.583Z,18.93
2018-02-07T00:40:59.150Z,19.07
2018-02-07T00:43:26.810Z,19.77
2018-02-07T00:45:54.398Z,18.87
2018-02-07T00:48:21.986Z,19.17
2018-02-07T00:50:49.873Z,21.93
2018-02-07T00:53:17.421Z,20.17
2018-02-07T00:55:45.436Z,19.30
2018-02-07T00:58:13.330Z,21.33
2018-02-07T01:00:40.886Z,21.73
2018-02-07T01:03:08.766Z,22.23
2018-02-07T01:05:36.374Z,25.20
2018-02-07T01:08:04.025Z,23.50
2018-02-07T01:10:31.595Z,20.93
2018-02-07T01:12:59.185Z,25.07
2018-02-07T01:15:28.428Z,22.23
2018-02-07T01:17:56.003Z,21.07
2018-02-07T01:20:23.589Z,24.13
2018-02-07T01:22:51.149Z,20.83
2018-02-07T01:25:18.784Z,25.37
2018-02-07T01:27:46.343Z,26.77
2018-02-07T01:30:14.025Z,26.47
2018-02-07T01:32:41.908Z,24.50
2018-02-07T01:35:09.805Z,30.37
2018-02-07T01:37:37.533Z,28.03
2018-02-07T01:40:05.141Z,28.20
2018-02-07T01:42:32.951Z,26.53
2018-02-07T01:45:00.742Z,26.10
2018-02-07T01:47:28.460Z,28.03
2018-02-07T01:49:56.415Z,29.47
2018-02-07T01:52:23.993Z,30.53
2018-02-07T01:54:51.553Z,32.37
2018-02-07T01:57:19.128Z,28.40
2018-02-07T01:59:46.766Z,30.47
2018-02-07T02:02:14.384Z,28.37
2018-02-07T02:04:41.983Z,32.73
2018-02-07T02:07:09.583Z,32.70
2018-02-07T02:09:37.334Z,31.40
2018-02-07T02:12:04.937Z,32.13
2018-02-07T02:14:32.504Z,30.30
2018-02-07T02:17:00.316Z,30.07
2018-02-07T02:19:27.921Z,31.10
2018-02-07T02:21:55.513Z,29.90
2018-02-07T02:24:23.271Z,28.40
2018-02-07T02:26:50.835Z,26.77
2018-02-07T02:29:18.404Z,29.53
2018-02-07T02:31:46.036Z,29.20
2018-02-07T02:34:13.657Z,25.50
2018-02-07T02:36:41.331Z,29.00
2018-02-07T02:39:09.078Z,26.70
2018-02-07T02:41:36.641Z,30.10
2018-02-07T02:44:04.280Z,28.20
2018-02-07T02:46:32.341Z,27.60
2018-02-07T02:49:00.151Z,29.43
2018-02-07T02:51:27.717Z,23.93
2018-02-07T02:53:55.485Z,31.93
2018-02-07T02:56:23.324Z,26.27
2018-02-07T02:58:51.389Z,26.07
2018-02-07T03:01:19.277Z,30.47
2018-02-07T03:03:47.059Z,26.93
2018-02-07T03:06:14.795Z,25.70
2018-02-07T03:08:42.490Z,24.07
2018-02-07T03:11:10.146Z,27.33
2018-02-07T03:13:37.839Z,23.90
2018-02-07T03:16:05.549Z,26.43
2018-02-07T03:18:33.290Z,25.40
2018-02-07T03:21:00.861Z,27.63
2018-02-07T03:23:28.486Z,27.03
2018-02-07T03:25:56.050Z,25.23
2018-02-07T03:28:23.610Z,24.40
2018-02-07T03:30:51.457Z,22.60
2018-02-07T03:33:19.138Z,19.00
2018-02-07T03:35:46.779Z,25.57
2018-02-07T03:38:14.402Z,23.50
2018-02-07T03:40:41.962Z,25.37
2018-02-07T03:43:09.521Z,23.20
2018-02-07T03:45:37.213Z,25.30
2018-02-07T03:48:04.929Z,24.47
2018-02-07T03:50:32.804Z,23.90
2018-02-07T03:53:00.676Z,24.33
2018-02-07T03:55:28.403Z,23.80
2018-02-07T03:57:55.973Z,24.13
2018-02-07T04:00:23.774Z,23.67
2018-02-07T04:02:51.551Z,23.87
2018-02-07T04:05:19.312Z,22.33
2018-02-07T04:07:47.020Z,22.00
2018-02-07T04:10:14.577Z,20.53
2018-02-07T04:12:42.468Z,37.70
2018-02-07T04:15:10.034Z,36.10
2018-02-07T04:17:38.599Z,35.60
2018-02-07T04:20:06.425Z,34.70
2018-02-07T04:22:34.168Z,37.53
2018-02-07T04:25:01.732Z,27.27
2018-02-07T04:27:29.561Z,28.30
2018-02-07T04:29:57.281Z,25.93
2018-02-07T04:32:24.911Z,23.73
2018-02-07T04:34:52.635Z,22.33
2018-02-07T04:37:20.510Z,24.23
2018-02-07T04:39:48.244Z,23.27
2018-02-07T04:42:15.801Z,24.00
2018-02-07T04:44:43.396Z,21.87
2018-02-07T04:47:11.038Z,21.17
2018-02-07T04:49:38.848Z,21.10
2018-02-07T04:52:06.425Z,20.60
2018-02-07T04:54:34.046Z,19.67
2018-02-07T04:57:01.796Z,20.47
2018-02-07T04:59:29.361Z,17.37
2018-02-07T05:01:57.066Z,17.53
2018-02-07T05:04:24.854Z,20.93
2018-02-07T05:06:52.417Z,23.63
2018-02-07T05:09:19.978Z,19.40
2018-02-07T05:11:48.808Z,19.80
2018-02-07T05:14:16.525Z,19.73
2018-02-07T05:16:44.083Z,20.40
2018-02-07T05:19:11.678Z,19.70
2018-02-07T05:21:39.290Z,24.73
2018-02-07T05:24:06.874Z,19.90
2018-02-07T05:26:34.433Z,20.37
2018-02-07T05:29:02.233Z,19.60
2018-02-07T05:31:29.966Z,20.40
2018-02-07T05:33:57.660Z,23.27
2018-02-07T05:36:25.383Z,27.87
2018-02-07T05:38:52.947Z,23.47
2018-02-07T05:41:20.764Z,21.23
2018-02-07T05:43:48.322Z,20.13
2018-02-07T05:46:16.060Z,22.80
2018-02-07T05:48:43.879Z,27.60
2018-02-07T05:51:11.508Z,24.13
2018-02-07T05:53:39.093Z,21.60
2018-02-07T05:56:06.689Z,21.80
2018-02-07T05:58:34.266Z,20.47
2018-02-07T06:01:02.064Z,21.63
2018-02-07T06:03:30.683Z,23.37
2018-02-07T06:05:58.237Z,22.10
2018-02-07T06:08:25.789Z,22.33
2018-02-07T06:10:53.358Z,22.33
2018-02-07T06:13:20.905Z,23.53
2018-02-07T06:15:48.779Z,22.70
2018-02-07T06:18:16.500Z,26.37
2018-02-07T06:20:44.123Z,27.00
2018-02-07T06:23:11.758Z,25.13
2018-02-07T06:25:39.316Z,20.90
2018-02-07T06:28:06.873Z,21.13
2018-02-07T06:30:34.433Z,18.77
2018-02-07T06:33:02.096Z,19.40
2018-02-07T06:35:29.657Z,20.80
2018-02-07T06:37:57.269Z,24.43
2018-02-07T06:40:24.829Z,22.70
2018-02-07T06:42:52.381Z,18.87
2018-02-07T06:45:20.191Z,22.27
2018-02-07T06:47:47.749Z,20.53
2018-02-07T06:50:15.526Z,22.63
2018-02-07T06:52:43.220Z,18.63
2018-02-07T06:55:11.062Z,19.57
2018-02-07T06:57:39.552Z,20.40
2018-02-07T07:00:07.114Z,18.17
2018-02-07T07:02:34.922Z,18.90
2018-02-07T07:05:02.489Z,16.97
2018-02-07T07:07:30.256Z,19.80
2018-02-07T07:09:57.817Z,20.57
2018-02-07T07:12:25.429Z,17.27
2018-02-07T07:14:53.210Z,14.90
2018-02-07T07:17:20.819Z,17.70
2018-02-07T07:19:49.281Z,13.20
2018-02-07T07:22:17.138Z,15.80
2018-02-07T07:24:45.377Z,12.80
2018-02-07T07:27:12.927Z,13.43
2018-02-07T07:29:40.546Z,15.13
2018-02-07T07:32:08.274Z,17.33
2018-02-07T07:34:36.060Z,16.30
2018-02-07T07:37:03.621Z,11.27
2018-02-07T07:39:31.180Z,13.60
2018-02-07T07:41:59.116Z,12.57
2018-02-07T07:44:26.671Z,12.00
2018-02-07T07:46:54.297Z,17.60
2018-02-07T07:49:21.850Z,18.93
2018-02-07T07:51:49.558Z,22.07
2018-02-07T07:54:17.276Z,17.60
2018-02-07T07:56:44.829Z,13.43
2018-02-07T07:59:12.390Z,13.07
2018-02-07T08:01:39.949Z,14.40
2018-02-07T08:04:07.563Z,21.40
2018-02-07T08:06:35.122Z,15.47
2018-02-07T08:09:02.910Z,19.00
2018-02-07T08:11:30.469Z,14.83
2018-02-07T08:13:58.136Z,14.23
2018-02-07T08:16:25.746Z,16.27
2018-02-07T08:18:53.339Z,17.90
2018-02-07T08:21:21.304Z,13.70
2018-02-07T08:23:49.119Z,17.47
2018-02-07T08:26:16.673Z,14.20
2018-02-07T08:28:44.455Z,11.87
2018-02-07T08:31:12.169Z,13.43
2018-02-07T08:33:39.749Z,13.73
2018-02-07T08:36:07.509Z,16.17
2018-02-07T08:38:35.528Z,13.40
2018-02-07T08:41:03.095Z,14.43
2018-02-07T08:43:30.760Z,15.07
2018-02-07T08:45:58.329Z,14.13
2018-02-07T08:48:26.018Z,13.57
2018-02-07T08:50:53.585Z,10.80
2018-02-07T08:53:21.123Z,10.40
2018-02-07T08:55:48.931Z,10.23
2018-02-07T08:58:16.516Z,10.63
2018-02-07T09:00:44.070Z,13.77
2018-02-07T09:03:11.626Z,8.33
2018-02-07T09:05:39.189Z,9.90
2018-02-07T09:08:06.912Z,7.33
2018-02-07T09:10:34.508Z,13.20
2018-02-07T09:13:02.236Z,9.70
2018-02-07T09:15:29.997Z,8.83
2018-02-07T09:17:57.715Z,9.20
2018-02-07T09:20:25.282Z,10.30
2018-02-07T09:22:52.826Z,9.67
2018-02-07T09:25:20.553Z,11.40
2018-02-07T09:27:48.128Z,10.57
2018-02-07T09:30:15.686Z,7.73
2018-02-07T09:32:43.330Z,11.57
2018-02-07T09:35:10.863Z,11.30
2018-02-07T09:37:38.577Z,9.93
2018-02-07T09:40:06.161Z,10.83
2018-02-07T09:42:33.965Z,9.87
2018-02-07T09:45:01.511Z,9.20
2018-02-07T09:47:29.230Z,9.73
2018-02-07T09:49:57.048Z,10.07
2018-02-07T09:52:24.605Z,11.17
2018-02-07T09:54:52.585Z,13.57
2018-02-07T09:57:20.143Z,14.80
2018-02-07T09:59:47.706Z,16.60
2018-02-07T10:02:15.397Z,11.73
2018-02-07T10:04:42.970Z,14.17
2018-02-07T10:07:10.775Z,12.63
2018-02-07T10:09:38.469Z,18.20
2018-02-07T10:12:06.185Z,11.97
2018-02-07T10:14:33.731Z,12.20
2018-02-07T10:17:01.289Z,14.57
2018-02-07T10:19:28.861Z,33.57
2018-02-07T10:21:56.582Z,14.27
2018-02-07T10:24:24.197Z,10.13
2018-02-07T10:26:51.754Z,12.23
2018-02-07T10:29:19.537Z,9.40
2018-02-07T10:31:47.357Z,10.53
2018-02-07T10:34:15.073Z,9.23
2018-02-07T10:36:42.682Z,11.73
2018-02-07T10:39:10.300Z,11.67
2018-02-07T10:41:37.854Z,16.83
2018-02-07T10:44:05.645Z,13.87
2018-02-07T10:46:33.242Z,17.20
2018-02-07T10:49:01.082Z,25.40
2018-02-07T10:51:28.776Z,12.93
2018-02-07T10:53:56.487Z,15.73
2018-02-07T10:56:24.203Z,33.23
2018-02-07T10:58:51.774Z,16.37
2018-02-07T11:01:19.394Z,11.47
2018-02-07T11:03:46.930Z,16.57
2018-02-07T11:06:14.707Z,17.27
2018-02-07T11:08:42.273Z,15.33
2018-02-07T11:11:09.851Z,19.37
2018-02-07T11:13:37.430Z,13.80
2018-02-07T11:16:05.070Z,14.63
2018-02-07T11:18:32.700Z,18.90
2018-02-07T11:21:00.520Z,11.23
2018-02-07T11:23:28.074Z,11.80
2018-02-07T11:25:55.637Z,12.10
2018-02-07T11:28:23.206Z,8.70
2018-02-07T11:30:50.956Z,8.17
2018-02-07T11:33:18.501Z,9.60
2018-02-07T11:35:46.181Z,16.47
2018-02-07T11:38:13.738Z,22.60
2018-02-07T11:40:41.298Z,13.70
2018-02-07T11:43:08.872Z,10.50
2018-02-07T11:45:36.516Z,13.53
2018-02-07T11:48:04.067Z,13.13
2018-02-07T11:50:31.811Z,15.93
2018-02-07T11:52:59.688Z,13.73
2018-02-07T11:55:27.466Z,9.20
2018-02-07T11:57:55.023Z,13.90
2018-02-07T12:00:22.592Z,12.57
2018-02-07T12:02:50.321Z,13.70
2018-02-07T12:05:17.886Z,11.37
2018-02-07T12:07:45.625Z,10.97
2018-02-07T12:10:13.270Z,14.13
2018-02-07T12:12:40.879Z,11.63
2018-02-07T12:15:08.451Z,11.03
2018-02-07T12:17:36.025Z,19.10
2018-02-07T12:20:03.811Z,15.63
2018-02-07T12:22:31.448Z,15.50
2018-02-07T12:24:59.039Z,13.27
2018-02-07T12:27:26.713Z,15.73
2018-02-07T12:29:54.278Z,18.90
2018-02-07T12:32:22.036Z,47.10
2018-02-07T12:34:49.855Z,40.33
2018-02-07T12:37:17.462Z,31.93
2018-02-07T12:39:45.078Z,66.17
2018-02-07T12:42:12.722Z,31.23
2018-02-07T12:44:40.341Z,11.63
2018-02-07T12:47:08.144Z,102.60
2018-02-07T12:49:35.962Z,53.03
2018-02-07T12:52:03.694Z,67.90
2018-02-07T12:54:31.288Z,12.90
2018-02-07T12:56:58.867Z,122.20
2018-02-07T12:59:26.738Z,51.37
2018-02-07T13:01:54.362Z,13.63
2018-02-07T13:04:21.913Z,12.53
2018-02-07T13:06:49.504Z,14.07
2018-02-07T13:09:17.096Z,20.57
2018-02-07T13:11:44.649Z,14.50
2018-02-07T13:14:12.231Z,14.63
2018-02-07T13:16:39.775Z,15.73
2018-02-07T13:19:07.576Z,11.47
2018-02-07T13:21:35.171Z,15.80
2018-02-07T13:24:02.804Z,13.37
2018-02-07T13:26:30.530Z,30.23
2018-02-07T13:28:58.100Z,17.30
2018-02-07T13:31:25.866Z,16.50
2018-02-07T13:33:53.585Z,134.87
2018-02-07T13:36:21.406Z,13.83
2018-02-07T13:38:49.231Z,22.33
2018-02-07T13:41:16.828Z,51.93
2018-02-07T13:43:44.520Z,15.57
2018-02-07T13:46:12.094Z,17.43
2018-02-07T13:48:39.895Z,15.87
2018-02-07T13:51:07.446Z,10.33
2018-02-07T13:53:35.057Z,11.30
2018-02-07T13:56:02.645Z,21.50
2018-02-07T13:58:30.367Z,27.93
2018-02-07T14:00:57.977Z,24.83
2018-02-07T14:03:25.587Z,28.80
2018-02-07T14:05:53.212Z,23.73
2018-02-07T14:08:20.778Z,30.77
2018-02-07T14:10:48.546Z,35.57
2018-02-07T14:13:16.241Z,39.93
2018-02-07T14:15:43.829Z,32.43
2018-02-07T14:18:11.413Z,35.57
2018-02-07T14:20:39.012Z,28.20
2018-02-07T14:23:06.595Z,22.90
2018-02-07T14:25:34.363Z,29.10
2018-02-07T14:28:02.116Z,29.27
2018-02-07T14:30:29.677Z,29.37
2018-02-07T14:32:57.234Z,35.53
2018-02-07T14:35:25.037Z,28.63
2018-02-07T14:37:52.598Z,33.23
2018-02-07T14:40:20.262Z,30.10
2018-02-07T14:42:47.834Z,37.93
2018-02-07T14:45:15.608Z,31.27
2018-02-07T14:47:43.425Z,34.93
2018-02-07T14:50:11.042Z,36.70
2018-02-07T14:52:38.627Z,35.03
2018-02-07T14:55:06.202Z,40.33
2018-02-07T14:57:33.997Z,56.07
2018-02-07T15:00:01.571Z,44.40
2018-02-07T15:02:29.172Z,40.57
2018-02-07T15:04:56.951Z,44.87
2018-02-07T15:07:24.561Z,37.83
2018-02-07T15:09:52.388Z,42.13
2018-02-07T15:12:19.987Z,54.03
2018-02-07T15:14:47.559Z,41.63
2018-02-07T15:17:15.108Z,47.70
2018-02-07T15:19:42.744Z,43.07
2018-02-07T15:22:10.368Z,42.53
2018-02-07T15:24:37.972Z,36.80
2018-02-07T15:27:05.542Z,25.63
2018-02-07T15:29:33.117Z,33.63
2018-02-07T15:32:00.729Z,26.27
2018-02-07T15:34:28.285Z,20.37
2018-02-07T15:36:55.898Z,20.70
2018-02-07T15:39:23.472Z,19.77
2018-02-07T15:41:51.181Z,21.87
2018-02-07T15:44:18.745Z,19.80
2018-02-07T15:46:46.292Z,18.90
2018-02-07T15:49:13.862Z,20.87
2018-02-07T15:51:41.454Z,19.40
2018-02-07T15:54:09.069Z,25.70
2018-02-07T15:56:36.718Z,17.27
2018-02-07T15:59:04.289Z,23.90
2018-02-07T16:01:31.872Z,20.93
2018-02-07T16:03:59.679Z,25.53
2018-02-07T16:06:27.239Z,18.70
2018-02-07T16:08:54.793Z,21.27
2018-02-07T16:11:22.410Z,23.33
2018-02-07T16:13:49.975Z,65.63
2018-02-07T16:16:17.546Z,22.77
2018-02-07T16:18:45.171Z,21.50
2018-02-07T16:21:12.894Z,30.60
2018-02-07T16:23:40.723Z,25.10
2018-02-07T16:26:08.306Z,21.57
2018-02-07T16:28:36.159Z,18.40
2018-02-07T16:31:03.792Z,18.53
2018-02-07T16:33:31.386Z,18.83
2018-02-07T16:35:59.214Z,21.20
2018-02-07T16:38:27.035Z,22.63
2018-02-07T16:40:54.601Z,22.77
2018-02-07T16:43:22.259Z,22.73
2018-02-07T16:45:49.877Z,22.00
2018-02-07T16:48:17.429Z,25.27
2018-02-07T16:50:45.192Z,23.90
2018-02-07T16:53:12.790Z,27.73
2018-02-07T16:55:40.476Z,27.60
2018-02-07T16:58:08.069Z,32.07
2018-02-07T17:00:35.685Z,26.50
2018-02-07T17:03:03.298Z,23.23
2018-02-07T17:05:30.893Z,24.70
2018-02-07T17:07:58.449Z,30.97
2018-02-07T17:10:26.024Z,26.47
2018-02-07T17:12:53.676Z,33.13
2018-02-07T17:15:21.246Z,39.00
2018-02-07T17:17:48.797Z,44.40
2018-02-07T17:20:16.413Z,38.47
2018-02-07T17:22:43.974Z,37.70
2018-02-07T17:25:11.773Z,30.70
2018-02-07T17:27:39.359Z,36.93
2018-02-07T17:30:07.108Z,32.67
2018-02-07T17:32:34.734Z,36.30
2018-02-07T17:35:02.293Z,42.20
2018-02-07T17:37:29.967Z,48.70
2018-02-07T17:39:57.542Z,58.47
2018-02-07T17:42:25.299Z,56.67
2018-02-07T17:44:52.902Z,40.60
2018-02-07T17:47:20.515Z,37.57
2018-02-07T17:49:48.227Z,45.90
2018-02-07T17:52:15.795Z,43.17
2018-02-07T17:54:43.503Z,29.70
2018-02-07T17:57:11.140Z,36.57
2018-02-07T17:59:38.894Z,36.10
2018-02-07T18:02:06.490Z,39.07
2018-02-07T18:04:34.088Z,37.43
2018-02-07T18:07:01.649Z,39.63
2018-02-07T18:09:29.267Z,37.43
2018-02-07T18:11:56.821Z,39.93
2018-02-07T18:14:24.630Z,38.40
2018-02-07T18:16:52.298Z,34.63
2018-02-07T18:19:19.871Z,31.73
2018-02-07T18:21:47.462Z,39.50
2018-02-07T18:24:15.026Z,66.57
2018-02-07T18:26:42.823Z,41.50
2018-02-07T18:29:10.440Z,54.53
2018-02-07T18:31:38.179Z,98.83
2018-02-07T18:34:05.886Z,37.30
2018-02-07T18:36:33.694Z,43.70
2018-02-07T18:39:01.676Z,39.53
2018-02-07T18:41:29.398Z,43.37
2018-02-07T18:43:57.249Z,42.80
2018-02-07T18:46:24.825Z,46.60
2018-02-07T18:48:52.587Z,44.30
2018-02-07T18:51:20.153Z,46.77
2018-02-07T18:53:47.845Z,43.67
2018-02-07T18:56:15.425Z,38.10
2018-02-07T18:58:43.156Z,34.93
2018-02-07T19:01:10.805Z,42.33
2018-02-07T19:03:38.362Z,33.77
2018-02-07T19:06:05.998Z,41.03
2018-02-07T19:08:33.570Z,35.43
2018-02-07T19:11:01.312Z,43.17
2018-02-07T19:13:28.894Z,41.93
2018-02-07T19:15:56.478Z,37.57
2018-02-07T19:18:24.087Z,38.37
2018-02-07T19:20:51.718Z,39.17
2018-02-07T19:23:19.318Z,48.63
2018-02-07T19:25:47.035Z,41.10
2018-02-07T19:28:14.600Z,46.00
2018-02-07T19:30:42.164Z,43.30
2018-02-07T19:33:09.729Z,132.67
2018-02-07T19:35:37.369Z,43.40
2018-02-07T19:38:04.944Z,40.37
2018-02-07T19:40:32.661Z,36.83
2018-02-07T19:43:00.270Z,38.93
2018-02-07T19:45:28.006Z,46.33
2018-02-07T19:47:55.605Z,49.87
2018-02-07T19:50:23.209Z,49.83
2018-02-07T19:52:50.818Z,38.77
2018-02-07T19:55:18.374Z,57.33
2018-02-07T19:57:45.925Z,43.23
2018-02-07T20:00:13.492Z,42.73
2018-02-07T20:02:41.203Z,37.97
2018-02-07T20:05:08.921Z,51.67
2018-02-07T20:07:36.491Z,41.03
2018-02-07T20:10:04.116Z,33.50
2018-02-07T20:12:31.892Z,46.83
2018-02-07T20:14:59.446Z,37.40
2018-02-07T20:17:27.009Z,40.03
2018-02-07T20:19:54.746Z,42.00
2018-02-07T20:22:22.357Z,38.27
2018-02-07T20:24:49.934Z,42.17
2018-02-07T20:27:17.692Z,49.33
2018-02-07T20:29:45.419Z,40.23
2018-02-07T20:32:12.984Z,47.00
2018-02-07T20:34:40.716Z,42.07
2018-02-07T20:37:08.365Z,44.27
2018-02-07T20:39:35.948Z,55.47
2018-02-07T20:42:03.528Z,49.30
2018-02-07T20:44:31.149Z,38.30
2018-02-07T20:46:58.730Z,46.17
2018-02-07T20:49:26.342Z,48.77
2018-02-07T20:51:53.929Z,49.93
2018-02-07T20:54:21.487Z,50.40
2018-02-07T20:56:49.054Z,56.27
2018-02-07T20:59:16.632Z,51.33
2018-02-07T21:01:44.652Z,51.97
2018-02-07T21:04:12.210Z,54.00
2018-02-07T21:06:39.952Z,54.27
2018-02-07T21:09:07.535Z,65.17
2018-02-07T21:11:35.093Z,51.53
2018-02-07T21:14:02.645Z,97.47
2018-02-07T21:16:30.193Z,56.23
2018-02-07T21:18:57.927Z,48.90
2018-02-07T21:21:25.801Z,55.97
2018-02-07T21:23:53.358Z,42.03
2018-02-07T21:26:20.925Z,50.33
2018-02-07T21:28:48.623Z,39.13
2018-02-07T21:31:16.247Z,57.60
2018-02-07T21:33:43.955Z,43.07
2018-02-07T21:36:11.748Z,50.03
2018-02-07T21:38:39.296Z,42.00
2018-02-07T21:41:06.853Z,49.97
2018-02-07T21:43:34.452Z,53.27
2018-02-07T21:46:02.275Z,45.20
2018-02-07T21:48:29.880Z,42.90
2018-02-07T21:50:57.569Z,56.53
2018-02-07T21:53:25.430Z,57.40
2018-02-07T21:55:52.985Z,55.63
2018-02-07T21:58:20.542Z,49.83
2018-02-07T22:00:48.259Z,49.23
2018-02-07T22:03:15.802Z,45.97
2018-02-07T22:05:43.366Z,51.57
2018-02-07T22:08:10.917Z,44.53
2018-02-07T22:10:38.688Z,54.17
2018-02-07T22:13:06.226Z,50.20
2018-02-07T22:15:33.781Z,58.33
2018-02-07T22:18:01.349Z,63.83
2018-02-07T22:20:28.911Z,61.10
2018-02-07T22:22:56.474Z,57.20
2018-02-07T22:25:24.261Z,56.03
2018-02-07T22:27:51.965Z,58.93
2018-02-07T22:30:19.518Z,64.70
2018-02-07T22:32:47.316Z,58.17
2018-02-07T22:35:15.134Z,54.57
2018-02-07T22:37:42.690Z,54.30
2018-02-07T22:40:10.470Z,54.20
2018-02-07T22:42:38.021Z,49.23
2018-02-07T22:45:05.809Z,57.60
2018-02-07T22:47:33.365Z,58.93
2018-02-07T22:50:00.923Z,40.27
2018-02-07T22:52:28.555Z,55.73
2018-02-07T22:54:56.186Z,57.60
2018-02-07T22:57:23.996Z,108.03
2018-02-07T22:59:51.550Z,40.93
2018-02-07T23:02:19.217Z,48.33
2018-02-07T23:04:46.931Z,52.30
2018-02-07T23:07:14.489Z,57.93
2018-02-07T23:09:42.043Z,42.57
2018-02-07T23:12:09.594Z,46.50
2018-02-07T23:14:37.197Z,55.57
2018-02-07T23:17:04.749Z,50.20
2018-02-07T23:19:32.562Z,49.53
2018-02-07T23:22:00.275Z,46.57
2018-02-07T23:24:27.987Z,43.40
2018-02-07T23:26:55.550Z,48.03
2018-02-07T23:29:23.329Z,30.83
2018-02-07T23:31:50.879Z,44.90
2018-02-07T23:34:18.443Z,48.00
2018-02-07T23:36:46.283Z,43.17
2018-02-07T23:39:14.001Z,42.77
2018-02-07T23:41:41.552Z,46.23
2018-02-07T23:44:09.343Z,47.30
2018-02-07T23:46:36.893Z,46.93
2018-02-07T23:49:04.673Z,41.47
2018-02-07T23:51:32.229Z,42.73
2018-02-07T23:53:59.982Z,40.23
2018-02-07T23:56:27.699Z,43.43
2018-02-07T23:58:55.425Z,50.03
